createdAt,value
2022-12-14T00:00:29.707Z,-0.74
2022-12-14T00:01:29.664Z,-0.80
2022-12-14T00:02:29.746Z,-0.75
2022-12-14T00:03:29.683Z,-0.85
2022-12-14T00:04:29.617Z,-0.83
2022-12-14T00:05:29.598Z,-0.83
2022-12-14T00:06:29.581Z,-0.71
2022-12-14T00:07:29.566Z,-0.80
2022-12-14T00:08:29.860Z,-0.74
2022-12-14T00:09:29.537Z,-0.71
2022-12-14T00:10:29.514Z,-0.78
2022-12-14T00:11:29.501Z,-0.77
2022-12-14T00:12:29.483Z,-0.90
2022-12-14T00:13:29.473Z,-0.85
2022-12-14T00:14:29.457Z,-0.89
2022-12-14T00:15:29.467Z,-0.86
2022-12-14T00:16:29.425Z,-0.86
2022-12-14T00:17:29.413Z,-0.74
2022-12-14T00:18:29.840Z,-0.85
2022-12-14T00:19:29.377Z,-0.74
2022-12-14T00:20:29.361Z,-0.74
2022-12-14T00:21:29.354Z,-0.71
2022-12-14T00:22:29.336Z,-0.70
2022-12-14T00:23:32.069Z,-0.82
2022-12-14T00:24:29.303Z,-0.74
2022-12-14T00:25:29.281Z,-0.82
2022-12-14T00:26:29.271Z,-0.74
2022-12-14T00:27:29.259Z,-0.77
2022-12-14T00:28:29.575Z,-0.80
2022-12-14T00:29:29.223Z,-0.71
2022-12-14T00:30:29.206Z,-0.78
2022-12-14T00:31:29.312Z,-0.89
2022-12-14T00:32:29.174Z,-0.77
2022-12-14T00:33:29.170Z,-0.83
2022-12-14T00:34:29.151Z,-0.74
2022-12-14T00:35:29.131Z,-0.80
2022-12-14T00:36:29.118Z,-0.80
2022-12-14T00:37:29.098Z,-0.74
2022-12-14T00:38:29.468Z,-0.72
2022-12-14T00:39:29.072Z,-0.72
2022-12-14T00:40:29.047Z,-0.82
2022-12-14T00:41:29.040Z,-0.78
2022-12-14T00:42:29.021Z,-0.77
2022-12-14T00:43:29.010Z,-0.80
2022-12-14T00:44:28.994Z,-0.85
2022-12-14T00:45:28.969Z,-0.90
2022-12-14T00:46:29.016Z,-0.77
2022-12-14T00:47:28.941Z,-0.77
2022-12-14T00:48:29.252Z,-0.80
2022-12-14T00:49:28.913Z,-0.75
2022-12-14T00:50:28.897Z,-0.80
2022-12-14T00:51:28.877Z,-0.74
2022-12-14T00:52:28.865Z,-0.77
2022-12-14T00:53:28.853Z,-0.70
2022-12-14T00:54:28.835Z,-0.77
2022-12-14T00:55:28.813Z,-0.75
2022-12-14T00:56:28.802Z,-0.74
2022-12-14T00:57:28.785Z,-0.85
2022-12-14T00:58:29.177Z,-0.97
2022-12-14T00:59:28.759Z,-0.89
2022-12-14T01:00:28.735Z,-0.90
2022-12-14T01:01:28.798Z,-0.86
2022-12-14T01:02:28.807Z,-0.86
2022-12-14T01:03:29.025Z,-0.86
2022-12-14T01:04:28.677Z,-0.78
2022-12-14T01:05:28.658Z,-0.77
2022-12-14T01:06:28.647Z,-0.78
2022-12-14T01:07:28.637Z,-0.74
2022-12-14T01:08:28.614Z,-0.77
2022-12-14T01:09:28.597Z,-0.78
2022-12-14T01:10:28.580Z,-0.82
2022-12-14T01:11:28.566Z,-0.80
2022-12-14T01:12:28.553Z,-0.77
2022-12-14T01:13:28.994Z,-0.78
2022-12-14T01:14:28.519Z,-0.82
2022-12-14T01:15:28.498Z,-0.85
2022-12-14T01:16:28.524Z,-0.82
2022-12-14T01:17:28.473Z,-0.82
2022-12-14T01:18:28.458Z,-0.77
2022-12-14T01:19:28.440Z,-0.86
2022-12-14T01:20:28.422Z,-0.77
2022-12-14T01:21:28.413Z,-0.75
2022-12-14T01:22:28.394Z,-0.78
2022-12-14T01:23:28.960Z,-0.74
2022-12-14T01:24:28.365Z,-0.77
2022-12-14T01:25:28.345Z,-0.78
2022-12-14T01:26:28.336Z,-0.74
2022-12-14T01:27:28.314Z,-0.85
2022-12-14T01:28:28.308Z,-0.80
2022-12-14T01:29:28.284Z,-0.74
2022-12-14T01:30:28.267Z,-0.70
2022-12-14T01:31:28.292Z,-0.80
2022-12-14T01:32:28.239Z,-0.71
2022-12-14T01:33:28.642Z,-0.70
2022-12-14T01:34:28.208Z,-0.65
2022-12-14T01:35:28.186Z,-0.71
2022-12-14T01:36:28.174Z,-0.71
2022-12-14T01:37:28.159Z,-0.71
2022-12-14T01:38:28.146Z,-0.77
2022-12-14T01:39:28.134Z,-0.83
2022-12-14T01:40:28.114Z,-0.75
2022-12-14T01:41:28.091Z,-0.72
2022-12-14T01:42:28.080Z,-0.75
2022-12-14T01:43:28.634Z,-0.77
2022-12-14T01:44:28.054Z,-0.80
2022-12-14T01:45:28.034Z,-0.74
2022-12-14T01:46:28.085Z,-0.72
2022-12-14T01:47:27.998Z,-0.74
2022-12-14T01:48:27.990Z,-0.80
2022-12-14T01:49:27.969Z,-0.70
2022-12-14T01:50:27.951Z,-0.72
2022-12-14T01:51:27.945Z,-0.82
2022-12-14T01:52:27.923Z,-0.70
2022-12-14T01:53:28.561Z,-0.71
2022-12-14T01:54:27.891Z,-0.80
2022-12-14T01:55:27.868Z,-0.71
2022-12-14T01:56:27.859Z,-0.72
2022-12-14T01:57:27.848Z,-0.68
2022-12-14T01:58:27.829Z,-0.82
2022-12-14T01:59:27.813Z,-0.80
2022-12-14T02:00:27.795Z,-0.82
2022-12-14T02:01:27.906Z,-0.82
2022-12-14T02:02:27.914Z,-0.80
2022-12-14T02:03:28.345Z,-0.78
2022-12-14T02:04:27.737Z,-0.77
2022-12-14T02:05:27.722Z,-0.74
2022-12-14T02:06:27.703Z,-0.74
2022-12-14T02:07:27.696Z,-0.74
2022-12-14T02:08:27.677Z,-0.80
2022-12-14T02:09:27.657Z,-0.65
2022-12-14T02:10:27.640Z,-0.71
2022-12-14T02:11:27.627Z,-0.75
2022-12-14T02:12:27.612Z,-0.72
2022-12-14T02:13:28.118Z,-0.68
2022-12-14T02:14:27.578Z,-0.61
2022-12-14T02:15:27.577Z,-0.71
2022-12-14T02:16:27.596Z,-0.59
2022-12-14T02:17:27.536Z,-0.67
2022-12-14T02:18:27.519Z,-0.67
2022-12-14T02:19:27.510Z,-0.68
2022-12-14T02:20:27.487Z,-0.59
2022-12-14T02:21:27.473Z,-0.64
2022-12-14T02:22:27.461Z,-0.57
2022-12-14T02:23:27.799Z,-0.64
2022-12-14T02:24:27.423Z,-0.67
2022-12-14T02:25:27.422Z,-0.68
2022-12-14T02:26:27.395Z,-0.70
2022-12-14T02:27:27.375Z,-0.67
2022-12-14T02:28:27.360Z,-0.65
2022-12-14T02:29:27.350Z,-0.64
2022-12-14T02:30:27.332Z,-0.67
2022-12-14T02:31:27.345Z,-0.65
2022-12-14T02:32:27.294Z,-0.70
2022-12-14T02:33:27.658Z,-0.71
2022-12-14T02:34:27.267Z,-0.65
2022-12-14T02:35:27.251Z,-0.64
2022-12-14T02:36:27.240Z,-0.65
2022-12-14T02:37:27.220Z,-0.68
2022-12-14T02:38:27.203Z,-0.72
2022-12-14T02:39:27.820Z,-0.65
2022-12-14T02:40:27.179Z,-0.68
2022-12-14T02:41:27.162Z,-0.67
2022-12-14T02:42:27.154Z,-0.59
2022-12-14T02:43:27.619Z,-0.65
2022-12-14T02:44:27.109Z,-0.67
2022-12-14T02:45:27.097Z,-0.65
2022-12-14T02:46:27.174Z,-0.77
2022-12-14T02:47:27.064Z,-0.65
2022-12-14T02:48:27.064Z,-0.77
2022-12-14T02:49:27.038Z,-0.68
2022-12-14T02:50:27.019Z,-0.71
2022-12-14T02:51:27.004Z,-0.75
2022-12-14T02:52:26.986Z,-0.68
2022-12-14T02:53:27.179Z,-0.65
2022-12-14T02:54:26.961Z,-0.77
2022-12-14T02:55:26.945Z,-0.70
2022-12-14T02:56:26.945Z,-0.61
2022-12-14T02:57:26.915Z,-0.64
2022-12-14T02:58:26.899Z,-0.71
2022-12-14T02:59:26.891Z,-0.67
2022-12-14T03:00:26.867Z,-0.68
2022-12-14T03:01:26.945Z,-0.54
2022-12-14T03:02:26.910Z,-0.59
2022-12-14T03:03:27.193Z,-0.65
2022-12-14T03:04:26.800Z,-0.61
2022-12-14T03:05:26.788Z,-0.53
2022-12-14T03:06:26.769Z,-0.65
2022-12-14T03:07:26.756Z,-0.65
2022-12-14T03:08:26.743Z,-0.64
2022-12-14T03:09:26.727Z,-0.68
2022-12-14T03:10:26.708Z,-0.67
2022-12-14T03:11:26.696Z,-0.64
2022-12-14T03:12:26.677Z,-0.54
2022-12-14T03:13:27.043Z,-0.65
2022-12-14T03:14:26.657Z,-0.59
2022-12-14T03:15:26.630Z,-0.57
2022-12-14T03:16:26.662Z,-0.54
2022-12-14T03:17:26.600Z,-0.54
2022-12-14T03:18:26.619Z,-0.56
2022-12-14T03:19:26.575Z,-0.54
2022-12-14T03:20:26.553Z,-0.57
2022-12-14T03:21:26.541Z,-0.57
2022-12-14T03:22:26.527Z,-0.65
2022-12-14T03:23:26.898Z,-0.56
2022-12-14T03:24:26.493Z,-0.56
2022-12-14T03:25:26.482Z,-0.50
2022-12-14T03:26:26.461Z,-0.56
2022-12-14T03:27:26.447Z,-0.54
2022-12-14T03:28:26.429Z,-0.53
2022-12-14T03:29:26.418Z,-0.57
2022-12-14T03:30:58.193Z,-0.56
2022-12-14T03:31:26.460Z,-0.59
2022-12-14T03:32:26.368Z,-0.65
2022-12-14T03:33:26.687Z,-0.56
2022-12-14T03:34:26.335Z,-0.71
2022-12-14T03:35:26.331Z,-0.65
2022-12-14T03:36:26.307Z,-0.64
2022-12-14T03:37:26.289Z,-0.67
2022-12-14T03:38:26.280Z,-0.64
2022-12-14T03:39:26.262Z,-0.70
2022-12-14T03:40:26.249Z,-0.61
2022-12-14T03:41:26.234Z,-0.65
2022-12-14T03:42:26.218Z,-0.72
2022-12-14T03:43:26.541Z,-0.82
2022-12-14T03:44:26.185Z,-0.74
2022-12-14T03:45:26.217Z,-0.80
2022-12-14T03:46:26.156Z,-0.90
2022-12-14T03:47:26.140Z,-0.78
2022-12-14T03:48:26.123Z,-0.77
2022-12-14T03:49:26.112Z,-0.82
2022-12-14T03:50:26.093Z,-0.93
2022-12-14T03:51:26.079Z,-0.90
2022-12-14T03:52:26.060Z,-0.83
2022-12-14T03:53:26.486Z,-0.80
2022-12-14T03:54:26.032Z,-0.89
2022-12-14T03:55:26.018Z,-0.89
2022-12-14T03:56:26.009Z,-0.94
2022-12-14T03:57:25.989Z,-0.96
2022-12-14T03:58:25.970Z,-0.93
2022-12-14T03:59:25.963Z,-0.89
2022-12-14T04:00:25.945Z,-0.89
2022-12-14T04:01:26.169Z,-0.96
2022-12-14T04:02:26.064Z,-0.94
2022-12-14T04:03:26.159Z,-0.85
2022-12-14T04:04:25.880Z,-0.83
2022-12-14T04:05:25.871Z,-0.89
2022-12-14T04:06:25.845Z,-0.80
2022-12-14T04:07:25.837Z,-0.80
2022-12-14T04:08:25.817Z,-0.93
2022-12-14T04:09:25.803Z,-0.89
2022-12-14T04:10:25.784Z,-0.83
2022-12-14T04:11:25.771Z,-0.85
2022-12-14T04:12:25.756Z,-0.82
2022-12-14T04:13:26.178Z,-0.90
2022-12-14T04:14:25.721Z,-0.80
2022-12-14T04:15:25.711Z,-0.82
2022-12-14T04:16:25.743Z,-0.78
2022-12-14T04:17:25.680Z,-0.80
2022-12-14T04:18:25.664Z,-0.77
2022-12-14T04:19:25.649Z,-0.75
2022-12-14T04:20:25.631Z,-0.71
2022-12-14T04:21:25.613Z,-0.80
2022-12-14T04:22:25.601Z,-0.72
2022-12-14T04:23:25.972Z,-0.75
2022-12-14T04:24:25.570Z,-0.75
2022-12-14T04:25:25.558Z,-0.80
2022-12-14T04:26:25.540Z,-0.77
2022-12-14T04:27:25.522Z,-0.74
2022-12-14T04:28:25.513Z,-0.77
2022-12-14T04:29:25.496Z,-0.82
2022-12-14T04:30:25.477Z,-0.74
2022-12-14T04:31:25.526Z,-0.70
2022-12-14T04:32:25.466Z,-0.74
2022-12-14T04:33:25.770Z,-0.75
2022-12-14T04:34:25.418Z,-0.59
2022-12-14T04:35:25.404Z,-0.67
2022-12-14T04:36:25.387Z,-0.70
2022-12-14T04:37:25.371Z,-0.71
2022-12-14T04:38:25.362Z,-0.67
2022-12-14T04:39:25.342Z,-0.65
2022-12-14T04:40:25.327Z,-0.72
2022-12-14T04:41:25.309Z,-0.71
2022-12-14T04:42:25.296Z,-0.74
2022-12-14T04:43:25.554Z,-0.72
2022-12-14T04:44:25.266Z,-0.67
2022-12-14T04:45:25.248Z,-0.72
2022-12-14T04:46:25.229Z,-0.71
2022-12-14T04:47:25.213Z,-0.80
2022-12-14T04:48:25.202Z,-0.72
2022-12-14T04:49:25.186Z,-0.64
2022-12-14T04:50:25.174Z,-0.72
2022-12-14T04:51:25.162Z,-0.72
2022-12-14T04:52:25.139Z,-0.61
2022-12-14T04:53:25.513Z,-0.57
2022-12-14T04:54:25.114Z,-0.61
2022-12-14T04:55:25.099Z,-0.68
2022-12-14T04:56:25.080Z,-0.67
2022-12-14T04:57:25.069Z,-0.61
2022-12-14T04:58:25.051Z,-0.56
2022-12-14T04:59:25.035Z,-0.54
2022-12-14T05:00:25.021Z,-0.52
2022-12-14T05:01:25.100Z,-0.49
2022-12-14T05:02:25.090Z,-0.56
2022-12-14T05:03:25.463Z,-0.52
2022-12-14T05:04:24.957Z,-0.53
2022-12-14T05:05:24.945Z,-0.53
2022-12-14T05:06:24.938Z,-0.49
2022-12-14T05:07:24.910Z,-0.52
2022-12-14T05:08:24.918Z,-0.50
2022-12-14T05:09:24.891Z,-0.52
2022-12-14T05:10:24.871Z,-0.52
2022-12-14T05:11:53.233Z,-0.49
2022-12-14T05:12:24.837Z,-0.50
2022-12-14T05:13:25.104Z,-0.47
2022-12-14T05:14:24.807Z,-0.57
2022-12-14T05:15:24.792Z,-0.47
2022-12-14T05:16:24.803Z,-0.57
2022-12-14T05:17:24.759Z,-0.52
2022-12-14T05:18:24.741Z,-0.57
2022-12-14T05:19:24.720Z,-0.50
2022-12-14T05:20:24.716Z,-0.44
2022-12-14T05:21:24.697Z,-0.52
2022-12-14T05:22:24.683Z,-0.52
2022-12-14T05:23:25.041Z,-0.50
2022-12-14T05:24:24.656Z,-0.53
2022-12-14T05:25:24.630Z,-0.56
2022-12-14T05:26:24.619Z,-0.53
2022-12-14T05:27:24.608Z,-0.52
2022-12-14T05:28:24.596Z,-0.49
2022-12-14T05:29:24.570Z,-0.54
2022-12-14T05:30:24.623Z,-0.54
2022-12-14T05:31:24.541Z,-0.56
2022-12-14T05:32:24.516Z,-0.61
2022-12-14T05:33:25.004Z,-0.54
2022-12-14T05:34:24.496Z,-0.47
2022-12-14T05:35:24.479Z,-0.50
2022-12-14T05:36:24.466Z,-0.50
2022-12-14T05:37:24.446Z,-0.43
2022-12-14T05:38:24.427Z,-0.50
2022-12-14T05:39:24.423Z,-0.47
2022-12-14T05:40:24.404Z,-0.50
2022-12-14T05:41:24.387Z,-0.52
2022-12-14T05:42:24.371Z,-0.47
2022-12-14T05:43:24.688Z,-0.46
2022-12-14T05:44:24.341Z,-0.39
2022-12-14T05:45:24.330Z,-0.49
2022-12-14T05:46:24.329Z,-0.46
2022-12-14T05:47:24.297Z,-0.53
2022-12-14T05:48:24.283Z,-0.43
2022-12-14T05:49:24.264Z,-0.46
2022-12-14T05:50:24.252Z,-0.52
2022-12-14T05:51:24.235Z,-0.50
2022-12-14T05:52:24.220Z,-0.52
2022-12-14T05:53:24.639Z,-0.52
2022-12-14T05:54:24.190Z,-0.54
2022-12-14T05:55:24.173Z,-0.50
2022-12-14T05:56:24.157Z,-0.54
2022-12-14T05:57:24.141Z,-0.56
2022-12-14T05:58:24.125Z,-0.52
2022-12-14T05:59:24.110Z,-0.46
2022-12-14T06:00:24.099Z,-0.52
2022-12-14T06:01:24.202Z,-0.50
2022-12-14T06:02:24.140Z,-0.49
2022-12-14T06:03:24.070Z,-0.52
2022-12-14T06:04:24.069Z,-0.49
2022-12-14T06:05:24.022Z,-0.41
2022-12-14T06:06:24.005Z,-0.47
2022-12-14T06:07:27.696Z,-0.39
2022-12-14T06:08:23.980Z,-0.47
2022-12-14T06:09:23.965Z,-0.43
2022-12-14T06:10:23.955Z,-0.43
2022-12-14T06:11:23.937Z,-0.39
2022-12-14T06:12:23.923Z,-0.50
2022-12-14T06:13:24.088Z,-0.47
2022-12-14T06:14:23.888Z,-0.44
2022-12-14T06:15:23.866Z,-0.47
2022-12-14T06:16:23.903Z,-0.41
2022-12-14T06:17:23.839Z,-0.41
2022-12-14T06:18:23.820Z,-0.53
2022-12-14T06:19:23.804Z,-0.46
2022-12-14T06:20:23.799Z,-0.49
2022-12-14T06:21:23.772Z,-0.46
2022-12-14T06:22:23.758Z,-0.49
2022-12-14T06:23:23.854Z,-0.47
2022-12-14T06:24:23.730Z,-0.47
2022-12-14T06:25:23.715Z,-0.49
2022-12-14T06:26:23.696Z,-0.47
2022-12-14T06:27:23.677Z,-0.46
2022-12-14T06:28:23.668Z,-0.39
2022-12-14T06:29:23.650Z,-0.41
2022-12-14T06:30:23.637Z,-0.44
2022-12-14T06:31:23.681Z,-0.39
2022-12-14T06:32:23.607Z,-0.44
2022-12-14T06:33:23.592Z,-0.47
2022-12-14T06:34:28.177Z,-0.46
2022-12-14T06:35:23.555Z,-0.49
2022-12-14T06:36:23.551Z,-0.39
2022-12-14T06:37:23.530Z,-0.43
2022-12-14T06:38:23.516Z,-0.43
2022-12-14T06:39:23.502Z,-0.34
2022-12-14T06:40:23.488Z,-0.31
2022-12-14T06:41:23.468Z,-0.29
2022-12-14T06:42:23.451Z,-0.31
2022-12-14T06:43:23.439Z,-0.34
2022-12-14T06:44:23.425Z,-0.38
2022-12-14T06:45:23.410Z,-0.41
2022-12-14T06:46:23.454Z,-0.39
2022-12-14T06:47:23.376Z,-0.43
2022-12-14T06:48:23.364Z,-0.26
2022-12-14T06:49:23.351Z,-0.32
2022-12-14T06:50:23.336Z,-0.38
2022-12-14T06:51:23.319Z,-0.29
2022-12-14T06:52:26.669Z,-0.32
2022-12-14T06:53:23.284Z,-0.43
2022-12-14T06:54:23.274Z,-0.29
2022-12-14T06:55:23.250Z,-0.31
2022-12-14T06:56:23.240Z,-0.31
2022-12-14T06:57:23.231Z,-0.31
2022-12-14T06:58:25.750Z,-0.34
2022-12-14T06:59:23.193Z,-0.34
2022-12-14T07:00:23.186Z,-0.38
2022-12-14T07:01:23.261Z,-0.31
2022-12-14T07:02:23.329Z,-0.28
2022-12-14T07:03:23.161Z,-0.31
2022-12-14T07:04:23.130Z,-0.23
2022-12-14T07:05:23.108Z,-0.20
2022-12-14T07:06:23.120Z,-0.25
2022-12-14T07:07:23.069Z,-0.25
2022-12-14T07:08:23.060Z,-0.32
2022-12-14T07:09:23.882Z,-0.31
2022-12-14T07:10:23.029Z,-0.25
2022-12-14T07:11:23.012Z,-0.29
2022-12-14T07:12:23.000Z,-0.39
2022-12-14T07:13:22.986Z,-0.23
2022-12-14T07:14:22.965Z,-0.21
2022-12-14T07:15:22.947Z,-0.31
2022-12-14T07:16:22.992Z,-0.28
2022-12-14T07:17:22.923Z,-0.25
2022-12-14T07:18:22.907Z,-0.26
2022-12-14T07:19:22.894Z,-0.25
2022-12-14T07:20:22.876Z,-0.28
2022-12-14T07:21:22.862Z,-0.28
2022-12-14T07:22:22.843Z,-0.17
2022-12-14T07:23:27.681Z,-0.18
2022-12-14T07:24:22.817Z,-0.14
2022-12-14T07:25:22.805Z,-0.21
2022-12-14T07:26:22.789Z,-0.15
2022-12-14T07:27:22.762Z,-0.23
2022-12-14T07:28:22.749Z,-0.23
2022-12-14T07:29:22.741Z,-0.13
2022-12-14T07:30:22.728Z,-0.11
2022-12-14T07:31:22.757Z,-0.11
2022-12-14T07:32:22.696Z,-0.10
2022-12-14T07:33:22.671Z,-0.11
2022-12-14T07:34:22.665Z,-0.14
2022-12-14T07:35:22.677Z,-0.08
2022-12-14T07:36:22.633Z,-0.03
2022-12-14T07:37:22.623Z,-0.11
2022-12-14T07:38:22.607Z,-0.11
2022-12-14T07:39:22.586Z,-0.13
2022-12-14T07:40:22.573Z,-0.07
2022-12-14T07:41:23.378Z,-0.23
2022-12-14T07:42:22.544Z,-0.17
2022-12-14T07:43:22.533Z,-0.20
2022-12-14T07:44:22.511Z,-0.15
2022-12-14T07:45:22.495Z,-0.13
2022-12-14T07:46:22.532Z,-0.21
2022-12-14T07:47:22.468Z,-0.21
2022-12-14T07:48:22.451Z,-0.28
2022-12-14T07:49:22.435Z,-0.17
2022-12-14T07:50:22.419Z,-0.29
2022-12-14T07:51:22.408Z,-0.23
2022-12-14T07:52:22.392Z,-0.17
2022-12-14T07:53:22.366Z,-0.20
2022-12-14T07:54:22.364Z,-0.29
2022-12-14T07:55:22.346Z,-0.26
2022-12-14T07:56:22.338Z,-0.31
2022-12-14T07:57:22.312Z,-0.25
2022-12-14T07:58:22.304Z,-0.28
2022-12-14T07:59:22.290Z,-0.28
2022-12-14T08:00:22.269Z,-0.18
2022-12-14T08:01:22.532Z,-0.28
2022-12-14T08:02:22.367Z,-0.32
2022-12-14T08:03:22.221Z,-0.29
2022-12-14T08:04:22.246Z,-0.26
2022-12-14T08:05:22.195Z,-0.25
2022-12-14T08:06:22.178Z,-0.32
2022-12-14T08:07:22.160Z,-0.21
2022-12-14T08:08:22.154Z,-0.18
2022-12-14T08:09:22.135Z,-0.25
2022-12-14T08:10:22.116Z,-0.26
2022-12-14T08:11:22.106Z,-0.25
2022-12-14T08:12:22.087Z,-0.28
2022-12-14T08:13:22.072Z,-0.28
2022-12-14T08:14:22.054Z,-0.29
2022-12-14T08:15:22.045Z,-0.20
2022-12-14T08:16:22.091Z,-0.28
2022-12-14T08:17:22.019Z,-0.26
2022-12-14T08:18:22.035Z,-0.28
2022-12-14T08:19:21.987Z,-0.25
2022-12-14T08:20:21.961Z,-0.18
2022-12-14T08:21:21.952Z,-0.18
2022-12-14T08:22:21.943Z,-0.06
2022-12-14T08:23:21.923Z,-0.08
2022-12-14T08:24:21.907Z,-0.11
2022-12-14T08:25:21.883Z,0.00
2022-12-14T08:26:21.877Z,-0.10
2022-12-14T08:27:21.860Z,-0.06
2022-12-14T08:28:21.846Z,-0.15
2022-12-14T08:29:21.829Z,-0.32
2022-12-14T08:30:21.815Z,-0.28
2022-12-14T08:31:21.871Z,-0.26
2022-12-14T08:32:21.785Z,-0.28
2022-12-14T08:33:21.773Z,-0.25
2022-12-14T08:34:21.752Z,-0.25
2022-12-14T08:35:21.743Z,-0.20
2022-12-14T08:36:21.744Z,-0.14
2022-12-14T08:37:21.713Z,-0.18
2022-12-14T08:38:21.700Z,-0.08
2022-12-14T08:39:21.674Z,-0.02
2022-12-14T08:40:21.666Z,-0.03
2022-12-14T08:41:21.649Z,-0.13
2022-12-14T08:42:21.634Z,-0.28
2022-12-14T08:43:24.933Z,-0.26
2022-12-14T08:44:21.607Z,-0.28
2022-12-14T08:45:21.584Z,-0.21
2022-12-14T08:46:21.650Z,-0.28
2022-12-14T08:47:21.560Z,-0.26
2022-12-14T08:48:21.542Z,-0.28
2022-12-14T08:49:21.530Z,-0.29
2022-12-14T08:50:21.514Z,-0.17
2022-12-14T08:51:21.497Z,-0.25
2022-12-14T08:52:21.488Z,-0.10
2022-12-14T08:53:21.469Z,-0.10
2022-12-14T08:54:21.454Z,-0.03
2022-12-14T08:55:27.533Z,-0.11
2022-12-14T08:56:21.427Z,-0.23
2022-12-14T08:57:21.405Z,-0.14
2022-12-14T08:58:21.390Z,-0.28
2022-12-14T08:59:52.063Z,-0.17
2022-12-14T09:00:21.364Z,-0.23
2022-12-14T09:01:22.309Z,-0.13
2022-12-14T09:02:21.374Z,-0.14
2022-12-14T09:03:21.346Z,-0.15
2022-12-14T09:04:21.299Z,-0.20
2022-12-14T09:05:21.289Z,-0.18
2022-12-14T09:06:21.274Z,-0.08
2022-12-14T09:07:21.257Z,-0.14
2022-12-14T09:08:28.403Z,-0.08
2022-12-14T09:10:25.174Z,-0.03
2022-12-14T09:11:25.146Z,-0.03
2022-12-14T09:13:29.774Z,-0.07
2022-12-14T09:14:29.056Z,-0.07
2022-12-14T09:16:33.014Z,-0.08
2022-12-14T09:17:32.968Z,-0.03
2022-12-14T09:19:25.832Z,-0.14
2022-12-14T09:20:25.809Z,-0.07
2022-12-14T09:22:29.748Z,-0.14
2022-12-14T09:23:30.133Z,-0.13
2022-12-14T09:25:33.657Z,-0.07
2022-12-14T09:26:33.635Z,-0.07
2022-12-14T09:28:37.579Z,-0.14
2022-12-14T09:29:37.549Z,-0.18
2022-12-14T09:31:41.577Z,-0.13
2022-12-14T09:32:41.466Z,-0.20
2022-12-14T09:34:45.416Z,-0.18
2022-12-14T09:35:45.384Z,-0.14
2022-12-14T09:37:49.337Z,-0.07
2022-12-14T09:38:52.008Z,-0.08
2022-12-14T09:40:53.250Z,-0.02
2022-12-14T09:41:57.746Z,0.00
2022-12-14T09:43:46.292Z,0.01
2022-12-14T09:44:46.269Z,-0.03
2022-12-14T09:46:39.324Z,0.03
2022-12-14T09:47:39.309Z,0.01
2022-12-14T09:49:32.183Z,-0.02
2022-12-14T09:50:32.161Z,0.10
2022-12-14T09:52:36.089Z,0.04
2022-12-14T09:53:36.069Z,0.05
2022-12-14T09:55:40.013Z,0.04
2022-12-14T09:56:39.979Z,0.07
2022-12-14T09:58:43.983Z,0.01
2022-12-14T09:59:43.917Z,0.01
2022-12-14T10:02:13.961Z,-0.02
2022-12-14T10:02:47.997Z,-0.02
2022-12-14T10:04:51.788Z,-0.03
2022-12-14T10:05:51.775Z,0.01
2022-12-14T10:07:55.700Z,0.04
2022-12-14T10:08:55.678Z,-0.03
2022-12-14T10:10:59.616Z,-0.06
2022-12-14T10:11:59.591Z,-0.02
2022-12-14T10:13:52.658Z,0.01
2022-12-14T10:14:52.631Z,-0.02
2022-12-14T10:16:51.463Z,0.01
2022-12-14T10:17:45.668Z,0.05
2022-12-14T10:19:38.539Z,0.15
2022-12-14T10:20:38.508Z,0.07
2022-12-14T10:22:42.447Z,0.18
2022-12-14T10:23:42.419Z,0.11
2022-12-14T10:25:46.361Z,0.12
2022-12-14T10:26:46.338Z,0.21
2022-12-14T10:28:50.279Z,0.18
2022-12-14T10:29:50.254Z,0.23
2022-12-14T10:31:54.253Z,0.25
2022-12-14T10:32:54.167Z,0.26
2022-12-14T10:34:47.232Z,0.15
2022-12-14T10:35:47.199Z,0.18
2022-12-14T10:37:40.270Z,0.21
2022-12-14T10:38:40.309Z,0.19
2022-12-14T10:40:44.216Z,0.15
2022-12-14T10:41:44.155Z,0.01
2022-12-14T10:43:48.114Z,0.08
2022-12-14T10:44:50.103Z,0.18
2022-12-14T10:46:52.135Z,0.10
2022-12-14T10:47:51.999Z,0.21
2022-12-14T10:49:44.884Z,0.16
2022-12-14T10:50:44.840Z,0.18
2022-12-14T10:52:48.796Z,0.04
2022-12-14T10:53:48.801Z,-0.06
2022-12-14T10:55:52.732Z,0.03
2022-12-14T10:56:52.806Z,-0.02
2022-12-14T10:58:56.644Z,0.04
2022-12-14T11:00:08.413Z,0.04
2022-12-14T11:02:00.683Z,0.07
2022-12-14T11:03:00.647Z,0.00
2022-12-14T11:05:04.475Z,0.04
2022-12-14T11:06:04.448Z,0.08
2022-12-14T11:07:04.466Z,0.08
2022-12-14T11:08:04.419Z,0.10
2022-12-14T11:09:04.406Z,0.11
2022-12-14T11:10:04.390Z,0.04
2022-12-14T11:11:04.375Z,0.04
2022-12-14T11:12:04.397Z,0.07
2022-12-14T11:13:04.347Z,0.07
2022-12-14T11:14:04.333Z,0.07
2022-12-14T11:15:04.314Z,0.12
2022-12-14T11:16:04.306Z,0.16
2022-12-14T11:17:04.501Z,0.23
2022-12-14T11:18:04.453Z,0.18
2022-12-14T11:19:04.257Z,0.23
2022-12-14T11:20:04.247Z,0.29
2022-12-14T11:21:04.225Z,0.28
2022-12-14T11:22:04.213Z,0.18
2022-12-14T11:23:04.194Z,0.28
2022-12-14T11:24:04.180Z,0.15
2022-12-14T11:25:04.164Z,0.21
2022-12-14T11:26:04.160Z,0.26
2022-12-14T11:27:04.135Z,0.29
2022-12-14T11:28:04.150Z,0.31
2022-12-14T11:29:04.105Z,0.34
2022-12-14T11:30:04.091Z,0.23
2022-12-14T11:31:04.148Z,0.37
2022-12-14T11:32:04.058Z,0.28
2022-12-14T11:33:04.044Z,0.32
2022-12-14T11:34:04.032Z,0.37
2022-12-14T11:35:04.018Z,0.36
2022-12-14T11:36:04.001Z,0.41
2022-12-14T11:37:03.984Z,0.41
2022-12-14T11:38:03.971Z,0.37
2022-12-14T11:39:03.954Z,0.40
2022-12-14T11:40:03.946Z,0.43
2022-12-14T11:41:10.581Z,0.43
2022-12-14T11:42:03.911Z,0.39
2022-12-14T11:43:03.897Z,0.26
2022-12-14T11:44:03.883Z,0.23
2022-12-14T11:45:03.862Z,0.37
2022-12-14T11:46:03.939Z,0.28
2022-12-14T11:47:03.837Z,0.25
2022-12-14T11:48:03.820Z,0.25
2022-12-14T11:49:03.797Z,0.26
2022-12-14T11:50:03.788Z,0.37
2022-12-14T11:51:03.773Z,0.29
2022-12-14T11:52:03.757Z,0.34
2022-12-14T11:53:07.835Z,0.32
2022-12-14T11:54:03.736Z,0.32
2022-12-14T11:55:03.715Z,0.28
2022-12-14T11:56:03.701Z,0.18
2022-12-14T11:57:03.695Z,0.12
2022-12-14T11:58:03.671Z,0.10
2022-12-14T11:59:03.651Z,0.08
2022-12-14T12:00:03.646Z,0.12
2022-12-14T12:01:03.626Z,0.15
2022-12-14T12:02:03.717Z,0.12
2022-12-14T12:03:03.671Z,0.15
2022-12-14T12:04:03.674Z,0.15
2022-12-14T12:05:03.565Z,0.04
2022-12-14T12:06:03.574Z,0.07
2022-12-14T12:07:04.696Z,-0.03
2022-12-14T12:08:03.524Z,-0.03
2022-12-14T12:09:03.509Z,-0.06
2022-12-14T12:10:03.493Z,0.01
2022-12-14T12:11:03.475Z,-0.06
2022-12-14T12:12:03.461Z,0.03
2022-12-14T12:13:03.445Z,0.07
2022-12-14T12:14:03.434Z,0.11
2022-12-14T12:15:03.416Z,0.03
2022-12-14T12:16:03.459Z,-0.03
2022-12-14T12:17:03.384Z,-0.03
2022-12-14T12:18:03.376Z,0.00
2022-12-14T12:19:11.026Z,0.21
2022-12-14T12:20:03.345Z,0.12
2022-12-14T12:21:03.328Z,0.12
2022-12-14T12:22:03.315Z,0.16
2022-12-14T12:23:03.307Z,0.15
2022-12-14T12:24:03.281Z,0.19
2022-12-14T12:25:36.718Z,0.28
2022-12-14T12:26:03.260Z,0.19
2022-12-14T12:27:03.240Z,0.23
2022-12-14T12:28:03.226Z,0.36
2022-12-14T12:29:03.213Z,0.39
2022-12-14T12:30:03.194Z,0.40
2022-12-14T12:31:07.464Z,0.40
2022-12-14T12:32:03.164Z,0.34
2022-12-14T12:33:03.150Z,0.41
2022-12-14T12:34:03.139Z,0.23
2022-12-14T12:35:11.415Z,0.37
2022-12-14T12:36:03.108Z,0.34
2022-12-14T12:37:25.222Z,0.32
2022-12-14T12:38:03.067Z,0.26
2022-12-14T12:39:03.062Z,0.22
2022-12-14T12:40:03.050Z,0.11
2022-12-14T12:41:03.033Z,0.19
2022-12-14T12:42:05.465Z,0.12
2022-12-14T12:43:03.000Z,0.29
2022-12-14T12:44:02.988Z,0.18
2022-12-14T12:45:02.976Z,0.34
2022-12-14T12:46:03.009Z,0.28
2022-12-14T12:48:02.956Z,0.26
2022-12-14T12:49:02.916Z,0.29
2022-12-14T12:50:02.899Z,0.32
2022-12-14T12:51:02.882Z,0.40
2022-12-14T12:52:02.876Z,0.39
2022-12-14T12:53:04.153Z,0.31
2022-12-14T12:54:02.857Z,0.28
2022-12-14T12:55:02.828Z,0.22
2022-12-14T12:56:02.820Z,0.29
2022-12-14T12:57:02.797Z,0.19
2022-12-14T12:58:02.793Z,0.22
2022-12-14T12:59:02.771Z,0.22
2022-12-14T13:00:02.756Z,0.16
2022-12-14T13:01:02.748Z,0.29
2022-12-14T13:02:02.830Z,0.12
2022-12-14T13:03:02.829Z,0.19
2022-12-14T13:04:02.701Z,0.19
2022-12-14T13:05:22.038Z,0.23
2022-12-14T13:06:02.674Z,0.12
2022-12-14T13:07:02.652Z,0.11
2022-12-14T13:08:02.640Z,0.16
2022-12-14T13:09:02.622Z,0.15
2022-12-14T13:10:05.794Z,0.15
2022-12-14T13:11:25.150Z,0.18
2022-12-14T13:12:02.584Z,0.18
2022-12-14T13:13:02.564Z,0.12
2022-12-14T13:14:02.554Z,0.21
2022-12-14T13:15:02.538Z,0.19
2022-12-14T13:16:02.568Z,0.29
2022-12-14T13:17:02.508Z,0.21
2022-12-14T13:18:02.492Z,0.15
2022-12-14T13:19:19.173Z,0.18
2022-12-14T13:20:02.462Z,0.15
2022-12-14T13:21:02.445Z,0.23
2022-12-14T13:22:06.401Z,0.21
2022-12-14T13:23:36.006Z,0.22
2022-12-14T13:24:02.402Z,0.18
2022-12-14T13:25:02.388Z,0.18
2022-12-14T13:26:02.378Z,0.18
2022-12-14T13:27:02.358Z,0.19
2022-12-14T13:28:02.343Z,0.16
2022-12-14T13:29:02.328Z,0.15
2022-12-14T13:30:02.353Z,0.21
2022-12-14T13:31:02.374Z,0.12
2022-12-14T13:32:02.289Z,0.22
2022-12-14T13:33:02.273Z,0.18
2022-12-14T13:34:02.258Z,0.23
2022-12-14T13:35:02.241Z,0.18
2022-12-14T13:36:02.225Z,0.16
2022-12-14T13:37:02.209Z,0.25
2022-12-14T13:38:02.198Z,0.19
2022-12-14T13:39:02.179Z,0.19